Time;durP1;ratioP1;P1;durP2;ratioP2;P2;SDS_P1;SDS_P2;PMS_P1;PMS_P2;Temp;Humidity;BMP_temperature;BMP_pressure;BME280_temperature;BME280_humidity;BME280_pressure;Samples;Min_cycle;Max_cycle;Signal;HPM_P1;HPM_P2
2023/11/22 00:00:31;;;;;;;10.80;7.78;;;7.40;99.90;;;;;;5001640;28;20200;-87
2023/11/22 00:02:58;;;;;;;10.70;7.65;;;7.40;99.90;;;;;;4984169;28;20262;-87
2023/11/22 00:05:25;;;;;;;11.85;8.10;;;7.40;99.90;;;;;;5002369;28;20567;-88
2023/11/22 00:07:52;;;;;;;11.07;7.65;;;7.40;99.90;;;;;;5005613;28;20205;-87
2023/11/22 00:10:21;;;;;;;11.48;7.57;;;7.40;99.90;;;;;;4994317;28;20203;-87
2023/11/22 00:12:49;;;;;;;10.40;7.40;;;7.40;99.90;;;;;;5000961;28;20203;-87
2023/11/22 00:15:18;;;;;;;10.45;7.50;;;7.30;99.90;;;;;;5005327;28;20267;-87
2023/11/22 00:17:45;;;;;;;9.27;7.38;;;7.30;99.90;;;;;;5003168;28;20220;-87
2023/11/22 00:20:12;;;;;;;12.20;7.75;;;7.40;99.90;;;;;;5007777;28;20199;-87
2023/11/22 00:22:40;;;;;;;8.23;7.38;;;7.40;99.90;;;;;;5009448;28;20191;-87
2023/11/22 00:25:08;;;;;;;10.13;7.50;;;7.40;99.90;;;;;;5008039;28;20199;-87
2023/11/22 00:27:36;;;;;;;10.65;7.35;;;7.30;99.90;;;;;;4977928;28;20200;-87
2023/11/22 00:30:04;;;;;;;14.15;7.30;;;7.30;99.90;;;;;;5002350;28;20206;-87
2023/11/22 00:32:32;;;;;;;9.43;7.68;;;7.30;99.90;;;;;;4989217;28;20580;-87
2023/11/22 00:34:59;;;;;;;11.57;7.43;;;7.30;99.90;;;;;;5004328;28;20203;-87
2023/11/22 00:37:26;;;;;;;10.63;8.02;;;7.30;99.90;;;;;;5006725;28;20218;-87
2023/11/22 00:39:53;;;;;;;11.00;6.88;;;7.30;99.90;;;;;;5006092;28;20229;-87
2023/11/22 00:42:21;;;;;;;10.07;7.78;;;7.40;99.90;;;;;;4967232;28;20211;-87
2023/11/22 00:44:48;;;;;;;9.60;7.05;;;7.40;99.90;;;;;;5001997;28;20203;-87
2023/11/22 00:47:16;;;;;;;9.00;6.90;;;7.40;99.90;;;;;;4991434;28;20282;-87
2023/11/22 00:49:44;;;;;;;10.38;7.60;;;7.40;99.90;;;;;;4997471;28;20232;-87
2023/11/22 00:52:13;;;;;;;9.25;7.20;;;7.30;99.90;;;;;;5003811;28;20225;-87
2023/11/22 00:54:39;;;;;;;11.30;7.53;;;7.30;99.90;;;;;;5005497;28;20569;-87
2023/11/22 00:57:07;;;;;;;10.77;7.88;;;7.30;99.90;;;;;;5018099;28;20195;-86
2023/11/22 00:59:34;;;;;;;12.95;7.40;;;7.20;99.90;;;;;;5018994;28;20238;-87
2023/11/22 01:02:02;;;;;;;11.15;7.28;;;7.30;99.90;;;;;;5007364;28;20278;-87
2023/11/22 01:04:30;;;;;;;7.82;7.03;;;7.30;99.90;;;;;;4991885;28;21092;-87
2023/11/22 01:06:58;;;;;;;10.77;7.80;;;7.30;99.90;;;;;;5012521;28;20246;-87
2023/11/22 01:09:25;;;;;;;9.00;8.10;;;7.30;99.90;;;;;;5008598;28;20207;-87
2023/11/22 01:11:51;;;;;;;10.88;7.32;;;7.20;99.90;;;;;;5004968;28;20636;-87
2023/11/22 01:14:18;;;;;;;10.35;7.65;;;7.20;99.90;;;;;;5006819;28;20213;-87
2023/11/22 01:16:45;;;;;;;10.82;7.30;;;7.20;99.90;;;;;;5004309;28;20195;-87
2023/11/22 01:19:12;;;;;;;10.73;7.38;;;7.20;99.90;;;;;;4989176;28;20274;-87
2023/11/22 01:21:39;;;;;;;9.38;7.10;;;7.20;99.90;;;;;;5008738;28;20290;-87
2023/11/22 01:24:08;;;;;;;9.02;7.32;;;7.20;99.90;;;;;;4998684;28;20574;-87
2023/11/22 01:26:35;;;;;;;10.25;7.72;;;7.20;99.90;;;;;;5003883;28;20205;-87
2023/11/22 01:29:02;;;;;;;10.05;7.38;;;7.20;99.90;;;;;;5004079;28;20210;-87
2023/11/22 01:31:31;;;;;;;9.65;7.55;;;7.10;99.90;;;;;;4991278;28;20226;-87
2023/11/22 01:33:58;;;;;;;9.90;7.28;;;7.10;99.90;;;;;;5001242;28;20218;-87
2023/11/22 01:36:27;;;;;;;10.85;7.05;;;7.10;99.90;;;;;;5001988;28;20207;-87
2023/11/22 01:38:54;;;;;;;10.63;7.40;;;7.10;99.90;;;;;;4999722;28;20631;-87
2023/11/22 01:41:22;;;;;;;8.63;7.00;;;7.10;99.90;;;;;;5008460;28;20612;-87
2023/11/22 01:43:50;;;;;;;8.02;6.63;;;7.00;99.90;;;;;;5012853;28;20520;-87
2023/11/22 01:46:23;;;;;;;7.18;6.45;;;7.00;99.90;;;;;;5007760;28;20224;-86
2023/11/22 01:48:52;;;;;;;12.18;6.80;;;7.00;99.90;;;;;;4995457;28;20195;-87
2023/11/22 01:51:19;;;;;;;9.30;6.47;;;7.00;99.90;;;;;;5008848;28;20211;-86
2023/11/22 01:53:48;;;;;;;8.90;5.75;;;7.00;99.90;;;;;;4998911;28;20214;-87
2023/11/22 01:56:16;;;;;;;7.43;6.60;;;7.10;99.90;;;;;;5008891;28;20202;-87
2023/11/22 01:58:45;;;;;;;7.70;6.15;;;7.10;99.90;;;;;;4990278;28;20226;-87
2023/11/22 02:01:13;;;;;;;7.70;5.95;;;7.10;99.90;;;;;;5002096;28;20680;-87
2023/11/22 02:03:40;;;;;;;7.68;6.18;;;7.10;99.90;;;;;;5005133;28;20263;-87
2023/11/22 02:06:09;;;;;;;7.57;6.13;;;7.10;99.90;;;;;;5009590;28;20204;-87
2023/11/22 02:08:36;;;;;;;6.82;5.50;;;7.00;99.90;;;;;;5011040;28;20203;-87
2023/11/22 02:11:03;;;;;;;6.68;4.80;;;7.10;99.90;;;;;;5013450;28;20766;-87
2023/11/22 02:13:30;;;;;;;5.30;4.57;;;6.90;99.90;;;;;;5009619;28;20615;-87
2023/11/22 02:16:01;;;;;;;5.28;4.78;;;6.70;99.90;;;;;;5010554;28;20199;-88
2023/11/22 02:18:28;;;;;;;5.23;4.70;;;6.50;99.90;;;;;;5007216;28;20223;-87
2023/11/22 02:20:55;;;;;;;5.60;5.10;;;6.30;99.90;;;;;;5011479;28;20302;-87
2023/11/22 02:23:23;;;;;;;7.20;5.10;;;6.00;99.90;;;;;;5008123;28;20196;-85
2023/11/22 02:25:50;;;;;;;6.77;5.77;;;5.90;99.90;;;;;;4988968;28;20200;-85
2023/11/22 02:28:18;;;;;;;5.30;4.70;;;5.70;99.90;;;;;;5006221;28;20283;-85
2023/11/22 02:30:45;;;;;;;6.33;4.97;;;5.40;99.90;;;;;;4985392;28;20200;-85
2023/11/22 02:33:11;;;;;;;5.40;4.80;;;5.30;99.90;;;;;;5008344;28;20215;-85
2023/11/22 02:35:38;;;;;;;4.93;4.37;;;5.20;99.90;;;;;;5013103;28;20566;-85
2023/11/22 02:38:05;;;;;;;5.73;4.57;;;5.20;99.90;;;;;;5006098;28;20206;-85
2023/11/22 02:40:33;;;;;;;8.40;5.43;;;5.10;99.90;;;;;;5004235;28;20614;-85
2023/11/22 02:43:07;;;;;;;4.97;4.40;;;4.90;99.90;;;;;;5013168;28;20199;-85
2023/11/22 02:45:34;;;;;;;5.00;4.13;;;5.00;99.90;;;;;;5009435;28;20195;-85
2023/11/22 02:48:03;;;;;;;4.60;3.93;;;4.80;99.90;;;;;;5005667;28;20201;-85
2023/11/22 02:50:31;;;;;;;4.30;3.90;;;4.90;99.90;;;;;;5008285;28;20291;-86
2023/11/22 02:52:58;;;;;;;5.97;4.33;;;4.70;99.90;;;;;;5004800;28;20668;-85
2023/11/22 02:55:25;;;;;;;4.47;4.07;;;4.60;99.90;;;;;;5002709;28;20287;-86
2023/11/22 02:57:55;;;;;;;4.53;3.60;;;4.70;99.90;;;;;;5008785;28;20207;-85
2023/11/22 03:00:22;;;;;;;4.47;3.70;;;4.60;99.90;;;;;;4990354;28;20219;-85
2023/11/22 03:02:53;;;;;;;4.80;3.80;;;4.60;99.90;;;;;;5005598;28;20199;-85
2023/11/22 03:05:20;;;;;;;3.83;3.47;;;4.80;99.90;;;;;;5001170;28;20260;-85
2023/11/22 03:07:47;;;;;;;5.60;3.37;;;4.60;99.90;;;;;;5002873;28;20578;-85
2023/11/22 03:10:17;;;;;;;3.57;3.27;;;4.60;99.90;;;;;;4989452;28;20278;-84
2023/11/22 03:12:44;;;;;;;4.03;3.43;;;4.50;99.90;;;;;;5011708;28;20577;-84
2023/11/22 03:15:13;;;;;;;4.10;3.50;;;4.40;99.90;;;;;;5011144;28;20934;-84
2023/11/22 03:17:40;;;;;;;3.87;3.33;;;4.30;99.90;;;;;;5007059;28;20207;-84
2023/11/22 03:20:10;;;;;;;3.90;3.50;;;4.20;99.90;;;;;;4992733;28;20219;-85
2023/11/22 03:22:37;;;;;;;4.03;3.63;;;4.10;99.90;;;;;;5006298;28;20294;-84
2023/11/22 03:25:05;;;;;;;3.90;3.43;;;4.10;99.90;;;;;;4993965;28;20607;-84
2023/11/22 03:27:32;;;;;;;4.00;3.60;;;4.10;99.90;;;;;;5008493;28;20232;-86
2023/11/22 03:29:59;;;;;;;4.03;3.20;;;4.10;99.90;;;;;;5014002;28;20559;-84
2023/11/22 03:32:29;;;;;;;3.80;3.37;;;3.90;99.90;;;;;;5006570;28;20206;-84
2023/11/22 03:34:57;;;;;;;3.20;2.90;;;3.90;99.90;;;;;;5007059;28;20238;-85
2023/11/22 03:37:23;;;;;;;3.53;3.17;;;3.80;99.90;;;;;;5011450;28;20299;-84
2023/11/22 03:39:50;;;;;;;3.30;3.00;;;3.80;99.90;;;;;;5004900;28;20314;-85
2023/11/22 03:42:17;;;;;;;4.73;3.80;;;3.80;99.90;;;;;;5008611;28;20203;-85
2023/11/22 03:44:44;;;;;;;4.33;3.50;;;3.80;99.90;;;;;;5007712;28;20195;-84
2023/11/22 03:47:13;;;;;;;4.00;3.40;;;3.70;99.90;;;;;;4989968;28;20211;-84
2023/11/22 03:49:42;;;;;;;4.17;3.50;;;3.60;99.90;;;;;;4986911;28;20210;-85
2023/11/22 03:52:11;;;;;;;4.77;3.43;;;3.60;99.90;;;;;;5009412;28;20305;-85
2023/11/22 03:54:39;;;;;;;4.00;3.60;;;3.60;99.90;;;;;;5006485;28;20206;-84
2023/11/22 03:57:06;;;;;;;4.20;3.70;;;3.60;99.90;;;;;;5000712;28;20222;-85
2023/11/22 03:59:33;;;;;;;5.10;3.60;;;3.60;99.90;;;;;;5011811;28;20241;-85
2023/11/22 04:01:59;;;;;;;4.60;3.97;;;3.60;99.90;;;;;;5013009;28;20195;-85
2023/11/22 04:04:26;;;;;;;4.27;3.63;;;3.70;99.90;;;;;;5011870;28;20578;-85
2023/11/22 04:06:54;;;;;;;6.10;3.70;;;3.70;99.90;;;;;;4992406;28;20226;-84
2023/11/22 04:09:22;;;;;;;4.97;3.90;;;3.70;99.90;;;;;;5028982;28;20175;-86
2023/11/22 04:11:49;;;;;;;4.17;3.50;;;3.70;99.90;;;;;;5032768;28;20179;-82
2023/11/22 04:14:16;;;;;;;3.77;3.37;;;3.90;99.90;;;;;;5029288;28;20569;-84
2023/11/22 04:16:42;;;;;;;4.63;3.77;;;4.00;99.90;;;;;;4987484;28;20225;-84
2023/11/22 04:19:10;;;;;;;4.63;3.70;;;3.90;99.90;;;;;;5006560;28;20223;-84
2023/11/22 04:21:37;;;;;;;4.83;3.90;;;3.80;99.90;;;;;;4990000;28;20217;-84
2023/11/22 04:24:07;;;;;;;4.70;3.30;;;3.80;99.90;;;;;;5009808;28;20202;-84
2023/11/22 04:26:34;;;;;;;4.20;3.60;;;3.80;99.90;;;;;;5009870;28;20207;-84
2023/11/22 04:29:00;;;;;;;4.30;3.77;;;3.80;99.90;;;;;;5006282;28;20206;-84
2023/11/22 04:31:28;;;;;;;4.37;3.30;;;3.80;99.90;;;;;;5010129;28;20191;-84
2023/11/22 04:33:57;;;;;;;4.80;3.70;;;4.10;99.90;;;;;;5008098;28;20207;-84
2023/11/22 04:36:26;;;;;;;4.77;3.37;;;4.00;99.90;;;;;;5003855;28;20195;-84
2023/11/22 04:38:52;;;;;;;4.60;3.83;;;4.10;99.90;;;;;;4989949;28;20220;-84
2023/11/22 04:41:20;;;;;;;4.97;3.30;;;4.00;99.90;;;;;;5009958;28;20309;-84
2023/11/22 04:43:47;;;;;;;4.17;3.77;;;4.00;99.90;;;;;;4998150;28;20192;-84
2023/11/22 04:46:14;;;;;;;4.47;3.47;;;4.10;99.90;;;;;;4975029;28;20195;-84
2023/11/22 04:48:44;;;;;;;3.77;3.40;;;4.10;99.90;;;;;;5000001;28;20208;-84
2023/11/22 04:51:11;;;;;;;6.00;3.80;;;4.00;99.90;;;;;;5009611;28;20219;-84
2023/11/22 04:53:38;;;;;;;4.10;3.70;;;4.00;99.90;;;;;;4991639;28;20567;-85
2023/11/22 04:56:06;;;;;;;4.10;3.70;;;4.00;99.90;;;;;;5012229;28;20199;-84
2023/11/22 04:58:36;;;;;;;3.67;3.20;;;4.10;99.90;;;;;;5005759;28;20196;-84
2023/11/22 05:01:04;;;;;;;3.83;3.43;;;4.00;99.90;;;;;;4991002;28;20688;-84
2023/11/22 05:03:31;;;;;;;4.93;3.60;;;4.10;99.90;;;;;;4999481;28;20657;-84
2023/11/22 05:05:58;;;;;;;4.23;3.60;;;4.10;99.90;;;;;;5006574;28;20211;-85
2023/11/22 05:08:25;;;;;;;4.03;3.57;;;4.10;99.90;;;;;;4990508;28;20203;-84
2023/11/22 05:10:52;;;;;;;3.43;3.10;;;4.00;99.90;;;;;;4986245;28;20207;-84
2023/11/22 05:13:18;;;;;;;3.77;3.30;;;4.00;99.90;;;;;;5008506;28;20214;-84
2023/11/22 05:15:47;;;;;;;4.07;3.27;;;4.00;99.90;;;;;;5009954;28;20203;-85
2023/11/22 05:18:13;;;;;;;3.70;3.30;;;4.00;99.90;;;;;;4991212;28;20570;-84
2023/11/22 05:20:40;;;;;;;3.50;3.20;;;4.10;99.90;;;;;;5005516;28;20905;-85
2023/11/22 05:23:07;;;;;;;3.53;3.23;;;4.00;99.90;;;;;;5007996;28;20208;-85
2023/11/22 05:25:35;;;;;;;3.70;3.20;;;4.00;99.90;;;;;;5003467;28;20207;-84
2023/11/22 05:28:03;;;;;;;3.20;2.90;;;3.90;99.90;;;;;;5003292;28;20207;-84
2023/11/22 05:30:30;;;;;;;3.53;3.00;;;4.00;99.90;;;;;;5009655;28;20672;-85
2023/11/22 05:32:58;;;;;;;3.37;3.03;;;4.10;99.70;;;;;;5008988;28;20209;-84
2023/11/22 05:35:25;;;;;;;5.10;3.20;;;4.10;99.90;;;;;;4996961;28;20712;-85
2023/11/22 05:37:52;;;;;;;3.23;2.70;;;4.00;99.70;;;;;;4984524;28;20200;-84
2023/11/22 05:40:19;;;;;;;4.10;3.30;;;3.90;99.90;;;;;;5004904;28;20223;-84
2023/11/22 05:42:46;;;;;;;3.83;2.90;;;4.00;99.90;;;;;;5006693;28;20214;-84
2023/11/22 05:45:13;;;;;;;3.57;2.93;;;4.00;99.90;;;;;;5004532;28;20206;-84
2023/11/22 05:47:40;;;;;;;3.33;2.93;;;4.00;99.90;;;;;;5004903;28;20211;-84
2023/11/22 05:50:10;;;;;;;3.20;2.87;;;4.00;99.20;;;;;;5007864;28;20632;-85
2023/11/22 05:52:36;;;;;;;3.57;2.97;;;4.00;99.50;;;;;;4986786;28;20652;-85
2023/11/22 05:55:04;;;;;;;3.27;2.90;;;3.90;98.90;;;;;;5007078;28;20191;-84
2023/11/22 05:57:31;;;;;;;2.73;2.53;;;3.80;99.00;;;;;;5004928;28;20258;-84
2023/11/22 05:59:58;;;;;;;3.10;2.60;;;3.70;99.60;;;;;;5001559;28;20281;-84
2023/11/22 06:02:25;;;;;;;2.87;2.53;;;3.80;99.10;;;;;;4983994;28;20211;-84
2023/11/22 06:04:53;;;;;;;2.87;2.60;;;3.90;99.40;;;;;;5005024;28;20206;-84
2023/11/22 06:07:21;;;;;;;3.17;2.87;;;3.90;98.90;;;;;;4992084;28;20205;-84
2023/11/22 06:09:48;;;;;;;3.00;2.70;;;4.00;99.00;;;;;;4999821;28;20208;-84
2023/11/22 06:12:16;;;;;;;3.57;2.73;;;4.10;98.80;;;;;;5002394;28;20278;-84
2023/11/22 06:14:43;;;;;;;2.83;2.57;;;4.00;98.10;;;;;;5009071;28;20230;-84
2023/11/22 06:17:10;;;;;;;3.20;2.67;;;4.10;98.20;;;;;;5007074;28;20667;-84
2023/11/22 06:19:37;;;;;;;2.50;2.30;;;4.00;98.50;;;;;;4991574;28;20541;-84
2023/11/22 06:22:04;;;;;;;3.23;2.37;;;4.00;97.70;;;;;;5002473;28;20203;-85
2023/11/22 06:24:33;;;;;;;3.83;2.83;;;3.90;97.40;;;;;;5008094;28;20211;-84
2023/11/22 06:27:00;;;;;;;2.87;2.40;;;3.90;98.10;;;;;;5006027;28;20223;-84
2023/11/22 06:29:29;;;;;;;3.20;2.77;;;3.90;98.00;;;;;;5009085;28;20968;-84
2023/11/22 06:31:56;;;;;;;3.00;2.70;;;3.80;98.40;;;;;;5004744;28;20215;-84
2023/11/22 06:34:23;;;;;;;3.43;2.90;;;3.80;98.40;;;;;;5011734;28;20202;-84
2023/11/22 06:36:48;;;;;;;3.23;2.93;;;3.80;98.90;;;;;;5013121;28;20677;-85
2023/11/22 06:39:15;;;;;;;3.63;3.30;;;3.70;98.60;;;;;;4996607;28;20200;-84
2023/11/22 06:41:45;;;;;;;3.60;3.30;;;3.80;98.50;;;;;;5010462;28;20234;-84
2023/11/22 06:44:13;;;;;;;3.70;3.30;;;3.80;98.60;;;;;;5003538;28;20628;-84
2023/11/22 06:46:39;;;;;;;6.00;3.87;;;3.80;98.30;;;;;;5008153;28;20203;-84
2023/11/22 06:49:07;;;;;;;4.97;4.07;;;3.90;98.60;;;;;;5011853;28;20206;-84
2023/11/22 06:51:34;;;;;;;5.10;4.20;;;3.90;98.50;;;;;;5005183;28;20219;-85
2023/11/22 06:54:01;;;;;;;5.03;4.53;;;3.80;98.40;;;;;;5009640;28;20210;-84
2023/11/22 06:56:28;;;;;;;6.30;4.63;;;3.80;98.40;;;;;;5005636;28;20660;-84
2023/11/22 06:58:57;;;;;;;7.17;4.67;;;3.80;98.90;;;;;;5010245;28;20191;-84
2023/11/22 07:01:25;;;;;;;5.77;4.33;;;3.80;99.20;;;;;;5006679;28;20318;-84
2023/11/22 07:03:53;;;;;;;6.17;4.23;;;3.80;99.50;;;;;;5008781;28;20203;-84
2023/11/22 07:06:22;;;;;;;8.80;4.70;;;3.90;99.40;;;;;;5008527;28;20203;-84
2023/11/22 07:08:49;;;;;;;6.93;5.30;;;3.90;99.10;;;;;;5012821;28;20195;-84
2023/11/22 07:11:24;;;;;;;6.97;5.00;;;4.00;99.00;;;;;;5007738;28;20204;-86
2023/11/22 07:13:51;;;;;;;5.60;4.37;;;3.90;99.40;;;;;;4990641;28;20191;-84
2023/11/22 07:16:20;;;;;;;6.77;4.43;;;3.90;99.20;;;;;;5012520;28;20210;-84
2023/11/22 07:18:47;;;;;;;6.80;4.60;;;4.00;99.20;;;;;;5004875;28;20294;-86
2023/11/22 07:21:14;;;;;;;8.37;4.67;;;4.00;99.20;;;;;;5008065;28;20225;-86
2023/11/22 07:23:41;;;;;;;7.13;4.80;;;4.00;99.30;;;;;;5006835;28;20196;-86
2023/11/22 07:26:08;;;;;;;8.00;4.90;;;4.00;99.00;;;;;;5009687;28;20192;-86
2023/11/22 07:28:35;;;;;;;6.60;4.87;;;4.00;99.10;;;;;;5004537;28;20235;-86
2023/11/22 07:31:03;;;;;;;8.80;5.20;;;4.00;98.90;;;;;;5009957;28;20204;-86
2023/11/22 07:33:32;;;;;;;7.03;4.97;;;3.90;99.30;;;;;;5004445;28;20203;-87
2023/11/22 07:35:59;;;;;;;5.30;4.43;;;4.00;99.30;;;;;;5005130;28;20564;-86
2023/11/22 07:38:27;;;;;;;5.40;4.20;;;4.00;99.20;;;;;;5001949;28;20612;-86
2023/11/22 07:40:54;;;;;;;6.00;4.40;;;4.10;98.80;;;;;;5009521;28;20613;-85
2023/11/22 07:43:20;;;;;;;4.50;3.90;;;4.10;99.00;;;;;;4988926;28;20230;-87
2023/11/22 07:45:48;;;;;;;5.03;4.20;;;4.10;98.90;;;;;;5006909;28;20195;-88
2023/11/22 07:48:15;;;;;;;5.77;4.40;;;4.10;99.10;;;;;;5002393;28;20212;-87
2023/11/22 07:50:44;;;;;;;6.03;4.60;;;4.10;99.00;;;;;;5011452;28;20355;-86
2023/11/22 07:53:12;;;;;;;6.43;4.60;;;4.10;99.00;;;;;;5007308;28;20207;-85
2023/11/22 07:55:39;;;;;;;4.40;4.00;;;4.10;99.00;;;;;;4971871;28;20290;-84
2023/11/22 07:58:07;;;;;;;6.07;4.30;;;4.00;99.10;;;;;;5001557;28;20205;-85
2023/11/22 08:00:34;;;;;;;5.97;4.50;;;3.90;99.10;;;;;;4987005;28;20219;-87
2023/11/22 08:03:02;;;;;;;8.33;4.47;;;3.90;99.20;;;;;;5004885;28;20871;-85
2023/11/22 08:05:34;;;;;;;4.80;4.30;;;4.00;99.00;;;;;;5003520;28;20220;-85
2023/11/22 08:08:06;;;;;;;5.60;4.33;;;3.90;99.00;;;;;;5004326;28;20207;-85
2023/11/22 08:10:34;;;;;;;5.50;4.40;;;3.90;99.00;;;;;;4999866;28;20565;-84
2023/11/22 08:13:02;;;;;;;5.33;4.70;;;3.90;99.00;;;;;;5006229;28;20192;-83
2023/11/22 08:15:31;;;;;;;4.83;4.33;;;4.00;98.90;;;;;;5010553;28;20262;-83
2023/11/22 08:17:58;;;;;;;6.90;4.97;;;4.00;99.00;;;;;;5003927;28;20196;-84
2023/11/22 08:20:25;;;;;;;5.50;4.67;;;4.00;98.90;;;;;;5005303;28;20223;-83
2023/11/22 08:22:52;;;;;;;7.17;5.00;;;3.90;99.10;;;;;;5009606;28;20241;-85
2023/11/22 08:25:20;;;;;;;6.33;4.80;;;4.00;99.20;;;;;;5002873;28;20568;-85
2023/11/22 08:27:47;;;;;;;6.23;5.20;;;4.00;99.40;;;;;;5005101;28;20210;-84
2023/11/22 08:30:15;;;;;;;6.10;4.90;;;4.00;98.90;;;;;;5005172;28;20565;-85
2023/11/22 08:32:42;;;;;;;6.83;5.70;;;3.90;99.20;;;;;;5002763;28;20222;-85
2023/11/22 08:35:10;;;;;;;5.77;4.90;;;3.90;99.10;;;;;;5006999;28;20200;-85
2023/11/22 08:37:38;;;;;;;9.37;5.70;;;3.80;99.00;;;;;;4992052;28;20204;-85
2023/11/22 08:40:07;;;;;;;6.90;5.87;;;3.90;99.10;;;;;;5006772;28;20227;-85
2023/11/22 08:42:36;;;;;;;8.93;5.50;;;3.80;99.10;;;;;;5008174;28;20222;-86
2023/11/22 08:45:03;;;;;;;10.80;5.20;;;3.70;99.40;;;;;;5005037;28;20206;-88
2023/11/22 08:47:31;;;;;;;5.53;4.80;;;3.80;99.40;;;;;;5008178;28;20199;-87
2023/11/22 08:49:58;;;;;;;8.70;4.97;;;3.80;98.80;;;;;;4988709;28;20290;-88
2023/11/22 08:52:25;;;;;;;6.93;4.93;;;3.70;98.80;;;;;;5008278;28;20219;-86
2023/11/22 08:54:52;;;;;;;7.43;4.80;;;3.80;99.00;;;;;;5001140;28;20200;-86
2023/11/22 08:57:20;;;;;;;5.10;4.60;;;3.90;98.90;;;;;;5008372;28;20242;-84
2023/11/22 08:59:48;;;;;;;5.53;4.87;;;4.00;98.40;;;;;;5002319;28;20199;-89
2023/11/22 09:02:15;;;;;;;6.33;5.27;;;4.00;98.60;;;;;;5002983;28;20223;-86
2023/11/22 09:04:42;;;;;;;5.23;4.73;;;3.90;98.40;;;;;;5011690;28;20249;-86
2023/11/22 09:07:10;;;;;;;6.07;4.83;;;3.80;98.80;;;;;;5008237;28;20675;-85
2023/11/22 09:09:37;;;;;;;8.73;4.63;;;3.70;99.90;;;;;;5004264;28;20211;-87
2023/11/22 09:12:12;;;;;;;5.30;4.30;;;3.60;99.60;;;;;;5005441;28;20225;-85
2023/11/22 09:14:40;;;;;;;8.20;4.53;;;3.70;99.20;;;;;;5008230;28;20209;-86
2023/11/22 09:17:09;;;;;;;4.90;4.07;;;3.70;99.20;;;;;;5003037;28;20283;-84
2023/11/22 09:19:36;;;;;;;5.20;4.47;;;3.70;99.30;;;;;;5005549;28;20229;-85
2023/11/22 09:22:05;;;;;;;4.60;4.20;;;3.70;99.10;;;;;;5008113;28;20292;-87
2023/11/22 09:24:33;;;;;;;4.97;4.43;;;3.60;99.50;;;;;;5004612;28;20204;-86
2023/11/22 09:27:04;;;;;;;4.83;4.37;;;3.70;99.70;;;;;;5008557;28;20738;-86
2023/11/22 09:29:32;;;;;;;5.20;4.40;;;3.60;99.90;;;;;;4972175;28;20206;-85
2023/11/22 09:32:00;;;;;;;5.70;4.70;;;3.60;99.60;;;;;;4988750;28;20199;-87
2023/11/22 09:34:29;;;;;;;4.40;3.93;;;3.80;99.90;;;;;;5006871;28;20550;-86
2023/11/22 09:36:56;;;;;;;6.30;4.67;;;3.80;99.20;;;;;;5002141;28;20203;-86
2023/11/22 09:39:24;;;;;;;6.30;5.00;;;3.90;99.50;;;;;;5003029;28;20214;-86
2023/11/22 09:41:53;;;;;;;5.57;4.60;;;3.90;99.50;;;;;;5006246;28;20324;-86
2023/11/22 09:44:20;;;;;;;5.70;4.33;;;4.10;99.30;;;;;;5003606;28;20224;-86
2023/11/22 09:46:50;;;;;;;5.40;4.40;;;4.20;99.10;;;;;;4978166;28;20226;-87
2023/11/22 09:49:25;;;;;;;6.63;3.90;;;4.30;98.60;;;;;;5002866;28;20217;-87
2023/11/22 09:51:59;;;;;;;4.83;3.70;;;4.30;97.10;;;;;;5001003;28;20219;-85
2023/11/22 09:54:33;;;;;;;5.57;4.27;;;4.20;96.70;;;;;;5001012;28;20202;-85
2023/11/22 09:57:02;;;;;;;6.57;4.60;;;4.00;97.10;;;;;;5000302;28;20522;-86
2023/11/22 09:59:30;;;;;;;6.70;4.27;;;4.10;98.00;;;;;;5006909;28;20214;-87
2023/11/22 10:01:59;;;;;;;6.60;4.57;;;4.10;97.80;;;;;;4993375;28;20288;-86
2023/11/22 10:04:28;;;;;;;4.70;4.30;;;4.20;97.50;;;;;;5006523;28;20206;-86
2023/11/22 10:06:59;;;;;;;4.40;4.00;;;4.10;97.20;;;;;;5003094;28;20556;-86
2023/11/22 10:09:27;;;;;;;4.10;3.67;;;4.10;97.50;;;;;;5008614;28;20250;-87
2023/11/22 10:11:57;;;;;;;5.00;3.70;;;4.10;97.30;;;;;;4989424;28;20203;-89
2023/11/22 10:14:26;;;;;;;4.73;3.87;;;4.00;97.10;;;;;;4982844;28;20211;-86
2023/11/22 10:17:00;;;;;;;4.70;3.80;;;4.10;96.80;;;;;;5002029;28;20195;-86
2023/11/22 10:19:27;;;;;;;3.83;3.40;;;4.30;96.60;;;;;;5007662;28;20207;-87
2023/11/22 10:22:06;;;;;;;5.23;4.00;;;4.30;96.20;;;;;;4992942;28;20231;-86
2023/11/22 10:24:33;;;;;;;4.83;3.83;;;4.30;95.50;;;;;;5005214;28;20679;-86
2023/11/22 10:27:00;;;;;;;4.00;3.60;;;4.30;96.00;;;;;;5005686;28;20664;-87
2023/11/22 10:29:27;;;;;;;4.63;3.73;;;4.20;95.80;;;;;;5008387;28;20207;-88
2023/11/22 10:31:54;;;;;;;5.40;3.73;;;4.30;95.90;;;;;;5008641;28;20312;-89
2023/11/22 10:34:21;;;;;;;5.00;3.73;;;4.20;96.00;;;;;;5015228;28;20226;-87
2023/11/22 10:36:49;;;;;;;5.83;4.37;;;4.20;96.80;;;;;;5029099;28;20244;-86
2023/11/22 10:39:20;;;;;;;4.70;4.00;;;4.20;97.50;;;;;;5009481;28;20204;-87
2023/11/22 10:41:47;;;;;;;4.60;3.90;;;4.00;96.80;;;;;;5016897;28;20206;-86
2023/11/22 10:44:15;;;;;;;4.73;4.23;;;4.00;96.90;;;;;;5003041;28;20199;-87
2023/11/22 10:46:42;;;;;;;4.90;4.30;;;3.90;97.10;;;;;;5005571;28;20211;-88
2023/11/22 10:49:09;;;;;;;5.07;4.57;;;3.80;97.40;;;;;;4997521;28;20215;-88
2023/11/22 10:51:40;;;;;;;5.23;4.70;;;3.70;98.30;;;;;;5001357;28;20246;-86
2023/11/22 10:54:07;;;;;;;4.60;4.13;;;3.70;98.10;;;;;;4988301;28;20635;-85
2023/11/22 10:56:41;;;;;;;6.77;4.10;;;3.70;98.50;;;;;;5008744;28;20203;-84
2023/11/22 10:59:13;;;;;;;4.83;4.30;;;3.70;98.50;;;;;;5008687;28;20254;-87
2023/11/22 11:01:46;;;;;;;5.80;4.53;;;3.80;98.80;;;;;;4987686;28;20219;-87
2023/11/22 11:04:21;;;;;;;5.27;4.10;;;3.90;98.80;;;;;;4980162;28;20200;-87
2023/11/22 11:06:55;;;;;;;4.80;4.30;;;3.90;98.10;;;;;;4999034;28;20210;-84
2023/11/22 11:09:26;;;;;;;6.53;4.10;;;4.10;98.00;;;;;;5000650;28;20347;-87
2023/11/22 11:11:57;;;;;;;5.53;4.70;;;4.40;97.60;;;;;;4999127;28;20297;-89
2023/11/22 11:14:24;;;;;;;6.27;3.60;;;4.60;97.30;;;;;;5004639;28;20195;-88
2023/11/22 11:16:54;;;;;;;4.10;3.80;;;4.60;96.30;;;;;;4996493;28;20197;-87
2023/11/22 11:19:23;;;;;;;5.90;3.83;;;4.60;95.00;;;;;;4981638;28;20219;-87
2023/11/22 11:21:50;;;;;;;4.43;3.50;;;4.50;95.30;;;;;;5001356;28;20222;-86
2023/11/22 11:24:18;;;;;;;6.20;3.73;;;4.50;95.00;;;;;;4997828;28;20206;-89
2023/11/22 11:26:52;;;;;;;6.70;4.00;;;4.50;95.20;;;;;;5002040;28;20210;-87
2023/11/22 11:29:32;;;;;;;5.70;4.57;;;4.40;94.50;;;;;;5001703;28;20193;-87
2023/11/22 11:31:59;;;;;;;4.90;4.40;;;4.40;94.90;;;;;;4982462;28;20215;-86
2023/11/22 11:34:26;;;;;;;8.97;6.27;;;4.40;97.00;;;;;;4998464;28;20199;-87
2023/11/22 11:36:54;;;;;;;4.03;3.63;;;5.50;99.90;;;;;;5001206;28;20584;-87
2023/11/22 11:39:30;;;;;;;9.07;7.00;;;5.60;94.10;;;;;;5009163;28;20242;-87
2023/11/22 11:42:10;;;;;;;5.57;4.77;;;5.30;92.90;;;;;;4998639;28;20293;-87
2023/11/22 11:44:51;;;;;;;13.43;10.23;;;5.10;93.40;;;;;;5000762;28;20200;-87
2023/11/22 11:47:18;;;;;;;5.07;3.50;;;5.20;95.90;;;;;;5006066;28;20195;-87
2023/11/22 11:49:45;;;;;;;3.57;3.20;;;5.10;93.00;;;;;;5000457;28;20235;-87
2023/11/22 11:52:12;;;;;;;4.20;3.53;;;4.80;92.90;;;;;;5005403;28;20219;-87
2023/11/22 11:54:40;;;;;;;5.13;4.50;;;4.70;93.50;;;;;;5005412;28;20205;-88
2023/11/22 11:57:08;;;;;;;3.60;3.30;;;5.00;95.10;;;;;;4985833;28;20208;-87
2023/11/22 11:59:35;;;;;;;3.43;3.13;;;5.30;93.30;;;;;;5008586;28;20207;-87
2023/11/22 12:02:05;;;;;;;3.33;2.97;;;5.30;91.60;;;;;;5010027;28;20223;-87
2023/11/22 12:04:32;;;;;;;3.10;2.80;;;5.20;92.00;;;;;;5008628;28;20231;-86
2023/11/22 12:06:59;;;;;;;3.43;3.13;;;5.10;92.20;;;;;;5005958;28;20961;-87
2023/11/22 12:09:29;;;;;;;4.27;3.50;;;4.90;92.50;;;;;;5002912;28;20221;-87
2023/11/22 12:11:56;;;;;;;3.60;3.30;;;4.90;93.70;;;;;;5004595;28;20200;-86
2023/11/22 12:14:25;;;;;;;4.03;3.63;;;4.90;93.50;;;;;;5002704;28;20214;-87
2023/11/22 12:16:54;;;;;;;24.93;19.10;;;4.90;93.40;;;;;;5004634;28;20204;-86
2023/11/22 12:19:27;;;;;;;12.27;8.17;;;5.20;96.80;;;;;;5007134;28;20214;-87
2023/11/22 12:21:54;;;;;;;3.70;3.40;;;5.20;94.00;;;;;;5000412;28;20219;-87
2023/11/22 12:24:22;;;;;;;3.47;3.17;;;5.10;93.30;;;;;;5006134;28;20199;-87
2023/11/22 12:26:49;;;;;;;3.60;3.27;;;4.90;93.00;;;;;;4991587;28;20199;-87
2023/11/22 12:29:18;;;;;;;3.20;2.90;;;4.80;93.00;;;;;;5009708;28;20619;-87
2023/11/22 12:31:46;;;;;;;3.30;3.00;;;4.80;92.70;;;;;;5010945;28;20222;-87
2023/11/22 12:34:14;;;;;;;3.43;3.13;;;4.90;92.40;;;;;;5004663;28;20207;-87
2023/11/22 12:36:43;;;;;;;3.27;2.80;;;4.80;93.10;;;;;;5002499;28;20709;-84
2023/11/22 12:39:16;;;;;;;3.47;3.00;;;4.70;93.40;;;;;;5003991;28;20257;-86
2023/11/22 12:41:45;;;;;;;3.77;3.03;;;4.60;93.40;;;;;;4975677;28;20648;-84
2023/11/22 12:44:12;;;;;;;3.40;3.10;;;4.60;93.90;;;;;;5003215;28;20191;-85
2023/11/22 12:46:55;;;;;;;5.27;3.73;;;4.60;93.80;;;;;;5006367;28;20211;-90
2023/11/22 12:49:22;;;;;;;5.17;3.63;;;4.40;94.00;;;;;;4988888;28;20195;-87
2023/11/22 12:51:51;;;;;;;6.57;3.50;;;4.30;94.90;;;;;;5003302;28;20315;-86
2023/11/22 12:54:21;;;;;;;4.83;3.40;;;4.30;94.90;;;;;;5010590;28;20199;-85
2023/11/22 12:56:50;;;;;;;6.30;4.00;;;4.30;94.10;;;;;;4992695;28;20203;-85
2023/11/22 12:59:17;;;;;;;6.07;3.97;;;4.20;94.40;;;;;;4978579;28;20191;-85